Nancy M — WDF3398 — position and weather

sailwx.info

Track history (hours):
 
Tides and Currents Weather Stations Pressure Air Temp Water Temp Dewpoint Dewpoint Depression Visibility Wind Speed Wind Dir Waves Ship Positions

Nancy M

Owner: MANSON CONSTRUCTION CO., SEATTLE, WA. More information available from US FCC via Universal Licensing System and Coast Guard Vessel Documentation Center.

Last reported at 2016-Sep-29 21:33 UTC. Time now 2016-Oct-01 04:58 UTC.
Position N 47°33' W 122°21'.

Length 24 m; draft 4 m.

Type: Tug. MMSI: 367439390.

Date/timePositionNaut miles runAvg speedWind from/ knotsBaromVisibWave heightAir tempDewpointWater temp
2016-Sep-29 21:33N 47°33' W 122°21'0 0.0
2016-Sep-29 20:33N 47°33' W 122°21'0 0.0
2016-Sep-29 19:33N 47°33' W 122°21'2 0.7
2016-Sep-29 16:33N 47°35' W 122°21'2 1.8
2016-Sep-29 15:33N 47°34' W 122°21'0 0.2
2016-Sep-29 14:33N 47°33' W 122°21'0 0.0
2016-Sep-29 13:33N 47°33' W 122°21'0 0.0
2016-Sep-29 08:33N 47°33' W 122°21'0 0.0
2016-Sep-29 07:33N 47°33' W 122°21'0 0.0
2016-Sep-29 00:34N 47°33' W 122°21'6 1.9
2016-Sep-28 21:25N 47°39' W 122°17'0 0.0
2016-Sep-28 16:31N 47°39' W 122°17'0 0.0
2016-Sep-28 15:29N 47°39' W 122°17'1 0.5
2016-Sep-28 12:33N 47°39' W 122°19'6 1.4
2016-Sep-28 08:33N 47°33' W 122°21'0 0.0
2016-Sep-28 03:33N 47°33' W 122°21'0 0.0
2016-Sep-28 02:33N 47°33' W 122°21'0 0.0
2016-Sep-28 01:33N 47°33' W 122°21'0 0.0
2016-Sep-27 23:33N 47°33' W 122°21'0 0.0
2016-Sep-27 19:33N 47°33' W 122°21'0 0.0
2016-Sep-27 14:33N 47°33' W 122°21'0 0.0
2016-Sep-27 13:33N 47°33' W 122°21'0 0.0
2016-Sep-27 10:33N 47°33' W 122°21'0 0.0
2016-Sep-27 00:34N 47°33' W 122°21'0 0.0
2016-Sep-26 20:33N 47°33' W 122°21'0 0.0
2016-Sep-26 19:33N 47°33' W 122°20'3 0.7
2016-Sep-26 15:33N 47°36' W 122°22'3 1.3
2016-Sep-26 13:33N 47°33' W 122°20'0 0.0
2016-Sep-26 11:33N 47°33' W 122°20'0 0.1
2016-Sep-26 08:33N 47°33' W 122°20'  
2016-Sep-24 03:33N 47°37' W 122°24'6 5.5
2016-Sep-24 02:34N 47°42' W 122°28'6 6.0
2016-Sep-24 01:33N 47°48' W 122°28'6 5.9
2016-Sep-24 00:33N 47°54' W 122°31'5 1.0
2016-Sep-23 19:33N 47°52' W 122°38'0 0.1
2016-Sep-23 17:33N 47°52' W 122°37'0 0.0
2016-Sep-23 16:33N 47°52' W 122°37'0 0.0
2016-Sep-23 15:33N 47°52' W 122°37'0 0.0
2016-Sep-23 13:32N 47°52' W 122°37'0 0.0
2016-Sep-23 09:33N 47°52' W 122°37'0 0.0
2016-Sep-23 06:30N 47°52' W 122°37'0 0.0
2016-Sep-23 04:33N 47°52' W 122°37'0 0.0
2016-Sep-23 03:33N 47°52' W 122°37'0 0.0
2016-Sep-23 02:33N 47°52' W 122°37'0 0.0
2016-Sep-23 01:31N 47°52' W 122°37'0 0.0
2016-Sep-23 00:33N 47°52' W 122°37'0 0.0
2016-Sep-22 23:33N 47°52' W 122°37'0 0.0
2016-Sep-22 20:33N 47°52' W 122°38'0 0.0
2016-Sep-22 12:33N 47°52' W 122°37'0 0.0
2016-Sep-22 04:31N 47°52' W 122°37'0 0.0
2016-Sep-22 03:24N 47°52' W 122°37'0 0.0
2016-Sep-22 00:30N 47°52' W 122°37'0 0.0
2016-Sep-21 23:34N 47°52' W 122°37'0 0.0
2016-Sep-21 22:33N 47°52' W 122°38'0 0.0
2016-Sep-21 19:27N 47°52' W 122°38'0 0.0
2016-Sep-21 16:33N 47°52' W 122°37'0 0.0
2016-Sep-21 09:33N 47°52' W 122°38'0 0.0
2016-Sep-21 08:33N 47°52' W 122°38'0 0.0
2016-Sep-21 05:33N 47°52' W 122°38'0 0.0
2016-Sep-21 03:33N 47°52' W 122°38'0 0.0
2016-Sep-21 02:31N 47°52' W 122°38'0 0.0
2016-Sep-20 14:32N 47°52' W 122°37'0 0.0
2016-Sep-20 13:33N 47°52' W 122°37'0 0.1
2016-Sep-20 10:33N 47°52' W 122°37'0 0.0
2016-Sep-20 08:33N 47°52' W 122°37'0 0.0
2016-Sep-20 07:31N 47°52' W 122°37'0 0.2
2016-Sep-20 06:32N 47°52' W 122°37'0 0.0
2016-Sep-20 02:32N 47°52' W 122°37'1 0.2
2016-Sep-19 23:33N 47°51' W 122°37'  
Track history (hours):
 
Tides and Currents Weather Stations Pressure Air Temp Water Temp Dewpoint Dewpoint Depression Visibility Wind Speed Wind Dir Waves Ship Positions

Nancy M

Owner: MANSON CONSTRUCTION CO., SEATTLE, WA. More information available from US FCC via Universal Licensing System and Coast Guard Vessel Documentation Center.

Last reported at 2016-Sep-29 21:33 UTC. Time now 2016-Oct-01 04:58 UTC.
Position N 47°33' W 122°21'.

Length 24 m; draft 4 m.

Type: Tug. MMSI: 367439390.

Date/timePositionNaut miles runAvg speedWind from/ knotsBaromVisibWave heightAir tempDewpointWater temp
2016-Sep-29 21:33N 47°33' W 122°21'0 0.0
2016-Sep-29 20:33N 47°33' W 122°21'0 0.0
2016-Sep-29 19:33N 47°33' W 122°21'2 0.7
2016-Sep-29 16:33N 47°35' W 122°21'2 1.8
2016-Sep-29 15:33N 47°34' W 122°21'0 0.2
2016-Sep-29 14:33N 47°33' W 122°21'0 0.0
2016-Sep-29 13:33N 47°33' W 122°21'0 0.0
2016-Sep-29 08:33N 47°33' W 122°21'0 0.0
2016-Sep-29 07:33N 47°33' W 122°21'0 0.0
2016-Sep-29 00:34N 47°33' W 122°21'6 1.9
2016-Sep-28 21:25N 47°39' W 122°17'0 0.0
2016-Sep-28 16:31N 47°39' W 122°17'0 0.0
2016-Sep-28 15:29N 47°39' W 122°17'1 0.5
2016-Sep-28 12:33N 47°39' W 122°19'6 1.4
2016-Sep-28 08:33N 47°33' W 122°21'0 0.0
2016-Sep-28 03:33N 47°33' W 122°21'0 0.0
2016-Sep-28 02:33N 47°33' W 122°21'0 0.0
2016-Sep-28 01:33N 47°33' W 122°21'0 0.0
2016-Sep-27 23:33N 47°33' W 122°21'0 0.0
2016-Sep-27 19:33N 47°33' W 122°21'0 0.0
2016-Sep-27 14:33N 47°33' W 122°21'0 0.0
2016-Sep-27 13:33N 47°33' W 122°21'0 0.0
2016-Sep-27 10:33N 47°33' W 122°21'0 0.0
2016-Sep-27 00:34N 47°33' W 122°21'0 0.0
2016-Sep-26 20:33N 47°33' W 122°21'0 0.0
2016-Sep-26 19:33N 47°33' W 122°20'3 0.7
2016-Sep-26 15:33N 47°36' W 122°22'3 1.3
2016-Sep-26 13:33N 47°33' W 122°20'0 0.0
2016-Sep-26 11:33N 47°33' W 122°20'0 0.1
2016-Sep-26 08:33N 47°33' W 122°20'  
2016-Sep-24 03:33N 47°37' W 122°24'6 5.5
2016-Sep-24 02:34N 47°42' W 122°28'6 6.0
2016-Sep-24 01:33N 47°48' W 122°28'6 5.9
2016-Sep-24 00:33N 47°54' W 122°31'5 1.0
2016-Sep-23 19:33N 47°52' W 122°38'0 0.1
2016-Sep-23 17:33N 47°52' W 122°37'0 0.0
2016-Sep-23 16:33N 47°52' W 122°37'0 0.0
2016-Sep-23 15:33N 47°52' W 122°37'0 0.0
2016-Sep-23 13:32N 47°52' W 122°37'0 0.0
2016-Sep-23 09:33N 47°52' W 122°37'0 0.0
2016-Sep-23 06:30N 47°52' W 122°37'0 0.0
2016-Sep-23 04:33N 47°52' W 122°37'0 0.0
2016-Sep-23 03:33N 47°52' W 122°37'0 0.0
2016-Sep-23 02:33N 47°52' W 122°37'0 0.0
2016-Sep-23 01:31N 47°52' W 122°37'0 0.0
2016-Sep-23 00:33N 47°52' W 122°37'0 0.0
2016-Sep-22 23:33N 47°52' W 122°37'0 0.0
2016-Sep-22 20:33N 47°52' W 122°38'0 0.0
2016-Sep-22 12:33N 47°52' W 122°37'0 0.0
2016-Sep-22 04:31N 47°52' W 122°37'0 0.0
2016-Sep-22 03:24N 47°52' W 122°37'0 0.0
2016-Sep-22 00:30N 47°52' W 122°37'0 0.0
2016-Sep-21 23:34N 47°52' W 122°37'0 0.0
2016-Sep-21 22:33N 47°52' W 122°38'0 0.0
2016-Sep-21 19:27N 47°52' W 122°38'0 0.0
2016-Sep-21 16:33N 47°52' W 122°37'0 0.0
2016-Sep-21 09:33N 47°52' W 122°38'0 0.0
2016-Sep-21 08:33N 47°52' W 122°38'0 0.0
2016-Sep-21 05:33N 47°52' W 122°38'0 0.0
2016-Sep-21 03:33N 47°52' W 122°38'0 0.0
2016-Sep-21 02:31N 47°52' W 122°38'0 0.0
2016-Sep-20 14:32N 47°52' W 122°37'0 0.0
2016-Sep-20 13:33N 47°52' W 122°37'0 0.1
2016-Sep-20 10:33N 47°52' W 122°37'0 0.0
2016-Sep-20 08:33N 47°52' W 122°37'0 0.0
2016-Sep-20 07:31N 47°52' W 122°37'0 0.2
2016-Sep-20 06:32N 47°52' W 122°37'0 0.0
2016-Sep-20 02:32N 47°52' W 122°37'1 0.2
2016-Sep-19 23:33N 47°51' W 122°37'  

Dump ship's entire track history